Terminal Aerodrome Forecast
Issued by NWS

Home | Current Version | Previous Version | Text Only | Print | Product List | Glossary On
Versions: 1 2 3 4 5 6 7 8 9 10 11 12 13 14
000
FTUS46 KMTR 032336
TAFOAK
TAF
KOAK 032336Z 0400/0506 26016KT P6SM FEW024 SCT200
     FM040500 28012KT P6SM BKN015
     FM040700 28008KT P6SM OVC012
     FM041700 26006KT P6SM FEW012 SCT015
     FM042000 27012KT P6SM FEW015 SCT200=

USA.gov is the U.S. government's official web portal to all federal, state and local government web resources and services.